McNally, Iowa
Current Conditions -  °F | °C
As of 1:15 AM on Saturday 20 Dec 2014 (Local Time) from KORC Reporting Station
Haze Haze  
Wind Chill: 26°   Ceiling: 400
Heat Index: 32°   Visibility: 1.5mi
Dew Point: 30°   Wind: 6mph
Humidity: 93%   Direction: 170°S
Pressure: 30.09"   Gusts: NA
Location:  42.9537°N, 96.3242°W
Report Text: KORC 200715Z AUTO 17005KT 1 1/2SM BR OVC004 00/M01 A3009 RMK AO2
Loading
Personal Weather Stations






























Interactive Weather Map New forecast layout! Learn more

10-Day Weather Forecast

Advertisements
Track Severe Weather on mobile